Time,TemperatureF,DewpointF,PressureIn,WindDirection,WindDirectionDegrees,WindSpeedMPH,WindSpeedGustMPH,Humidity,HourlyPrecipIn,Conditions,Clouds,dailyrainin,SolarRadiationWatts/m^2,SoftwareType,DateUTC
2013-07-30 09:03:00,77.0,59.0,-100.00,NE,43,6.0,9.0,54,0.00,,,0.38,318.000000,,2013-07-30 13:03:00,
2013-07-30 10:33:00,79.0,59.0,-100.00,NE,35,6.0,11.0,51,0.00,,,0.38,514.000000,,2013-07-30 14:33:00,
2013-07-30 12:33:00,85.0,62.0,-100.00,East,84,4.0,8.0,46,0.00,,,0.38,962.000000,,2013-07-30 16:33:00,
2013-07-30 12:44:00,85.0,62.0,-100.00,East,84,4.0,8.0,46,0.00,,,0.38,962.000000,,2013-07-30 16:44:00,
2013-07-30 12:52:00,85.0,62.0,-100.00,East,84,4.0,8.0,46,0.00,,,0.38,962.000000,,2013-07-30 16:52:00,
2013-07-30 13:02:00,85.0,62.0,-100.00,East,84,4.0,8.0,46,0.00,,,0.38,962.000000,,2013-07-30 17:02:00,
2013-07-30 13:03:00,88.0,65.0,-100.00,East,84,3.0,7.0,47,0.00,,,0.38,1053.000000,,2013-07-30 17:03:00,
2013-07-30 13:32:00,88.0,65.0,-100.00,East,84,3.0,7.0,47,0.00,,,0.38,1053.000000,,2013-07-30 17:32:00,
2013-07-30 13:43:00,88.0,65.0,-100.00,East,84,3.0,7.0,47,0.00,,,0.38,1053.000000,,2013-07-30 17:43:00,
2013-07-30 13:54:00,88.0,65.0,-100.00,East,84,3.0,7.0,47,0.00,,,0.38,1053.000000,,2013-07-30 17:54:00,
2013-07-30 14:03:00,89.0,65.0,-100.00,NNW,340,3.0,7.0,45,0.00,,,0.38,1071.000000,,2013-07-30 18:03:00,
2013-07-30 14:33:00,89.0,65.0,-100.00,NNW,340,3.0,7.0,45,0.00,,,0.38,1071.000000,,2013-07-30 18:33:00,
2013-07-30 14:43:00,89.0,65.0,-100.00,NNW,340,3.0,7.0,45,0.00,,,0.38,1071.000000,,2013-07-30 18:43:00,
2013-07-30 14:52:00,89.0,65.0,-100.00,NNW,340,3.0,7.0,45,0.00,,,0.38,1071.000000,,2013-07-30 18:52:00,
2013-07-30 15:33:00,91.0,69.0,-100.00,SSE,155,3.0,10.0,49,0.00,,,0.38,1049.000000,,2013-07-30 19:33:00,
2013-07-30 15:44:00,91.0,69.0,-100.00,SSE,155,3.0,10.0,49,0.00,,,0.38,1049.000000,,2013-07-30 19:44:00,
2013-07-30 15:52:00,91.0,69.0,-100.00,SSE,155,3.0,10.0,49,0.00,,,0.38,1049.000000,,2013-07-30 19:52:00,
2013-07-30 16:02:00,91.0,69.0,-100.00,SSE,155,3.0,10.0,49,0.00,,,0.38,1049.000000,,2013-07-30 20:02:00,
2013-07-30 16:33:00,90.0,65.0,-100.00,NNW,330,5.0,9.0,44,0.00,,,0.38,922.000000,,2013-07-30 20:33:00,
2013-07-30 16:43:00,90.0,65.0,-100.00,NNW,330,5.0,9.0,44,0.00,,,0.38,922.000000,,2013-07-30 20:43:00,
2013-07-30 16:52:00,90.0,65.0,-100.00,NNW,330,5.0,9.0,44,0.00,,,0.38,922.000000,,2013-07-30 20:52:00,
2013-07-30 17:02:00,90.0,65.0,-100.00,NNW,330,5.0,9.0,44,0.00,,,0.38,922.000000,,2013-07-30 21:02:00,
2013-07-30 17:32:00,92.0,66.0,-100.00,NE,35,5.0,10.0,42,0.00,,,0.00,828.000000,,2013-07-30 21:32:00,
2013-07-30 17:42:00,92.0,66.0,-100.00,NE,35,5.0,10.0,42,0.00,,,0.00,828.000000,,2013-07-30 21:42:00,
2013-07-30 17:53:00,92.0,66.0,-100.00,NE,35,5.0,10.0,42,0.00,,,0.00,828.000000,,2013-07-30 21:53:00,
2013-07-30 18:02:00,92.0,66.0,-100.00,NE,35,5.0,10.0,42,0.00,,,0.00,828.000000,,2013-07-30 22:02:00,
2013-07-30 18:32:00,92.0,66.0,-100.00,NE,35,3.0,8.0,43,0.00,,,0.00,534.000000,,2013-07-30 22:32:00,
2013-07-30 18:43:00,92.0,66.0,-100.00,NE,35,3.0,8.0,43,0.00,,,0.00,534.000000,,2013-07-30 22:43:00,
2013-07-30 18:53:00,92.0,66.0,-100.00,NE,35,3.0,8.0,43,0.00,,,0.00,534.000000,,2013-07-30 22:53:00,
2013-07-30 19:02:00,92.0,66.0,-100.00,NE,35,3.0,8.0,43,0.00,,,0.00,534.000000,,2013-07-30 23:02:00,
2013-07-30 19:23:00,88.0,66.0,-100.00,East,79,4.0,7.0,48,0.00,,,0.00,324.000000,,2013-07-30 23:23:00,
2013-07-30 19:32:00,88.0,66.0,-100.00,East,79,4.0,7.0,48,0.00,,,0.00,324.000000,,2013-07-30 23:32:00,
2013-07-30 19:42:00,88.0,66.0,-100.00,East,79,4.0,7.0,48,0.00,,,0.00,324.000000,,2013-07-30 23:42:00,
2013-07-30 19:53:00,88.0,66.0,-100.00,East,79,4.0,7.0,48,0.00,,,0.00,324.000000,,2013-07-30 23:53:00,
2013-07-30 20:02:00,88.0,66.0,-100.00,East,79,4.0,7.0,48,0.00,,,0.00,324.000000,,2013-07-31 00:02:00,
2013-07-30 20:32:00,84.0,67.0,-100.00,East,90,3.0,5.0,56,0.00,,,0.00,58.000000,,2013-07-31 00:32:00,
2013-07-30 20:43:00,84.0,67.0,-100.00,East,90,3.0,5.0,56,0.00,,,0.00,58.000000,,2013-07-31 00:43:00,
2013-07-30 20:53:00,84.0,67.0,-100.00,East,90,3.0,5.0,56,0.00,,,0.00,58.000000,,2013-07-31 00:53:00,
2013-07-30 21:02:00,84.0,67.0,-100.00,East,90,3.0,5.0,56,0.00,,,0.00,58.000000,,2013-07-31 01:02:00,